Time;durP1;ratioP1;P1;durP2;ratioP2;P2;SDS_P1;SDS_P2;PMS_P1;PMS_P2;Temp;Humidity;BMP_temperature;BMP_pressure;BME280_temperature;BME280_humidity;BME280_pressure;Samples;Min_cycle;Max_cycle;Signal;HPM_P1;HPM_P2
2021/10/08 00:00:17;;;;;;;13.43;9.98;;;9.90;99.90;;;;;;5027442;28;20458;-76
2021/10/08 00:02:42;;;;;;;10.35;8.88;;;9.90;99.90;;;;;;5019936;28;20478;-76
2021/10/08 00:05:10;;;;;;;10.77;8.80;;;10.00;99.90;;;;;;4975782;28;20121;-75
2021/10/08 00:07:35;;;;;;;11.02;8.82;;;10.00;99.90;;;;;;5009119;28;20312;-75
2021/10/08 00:10:01;;;;;;;11.23;8.90;;;10.00;99.90;;;;;;5012240;28;20075;-76
2021/10/08 00:12:28;;;;;;;12.38;10.18;;;10.00;99.90;;;;;;5011740;28;20026;-77
2021/10/08 00:14:54;;;;;;;14.13;10.35;;;10.00;99.90;;;;;;5022456;28;20018;-76
2021/10/08 00:17:20;;;;;;;9.98;8.27;;;10.00;99.90;;;;;;5017013;28;20056;-76
2021/10/08 00:19:45;;;;;;;9.00;7.40;;;10.00;99.90;;;;;;5015357;28;20033;-76
2021/10/08 00:22:11;;;;;;;8.35;7.43;;;10.10;99.90;;;;;;5011963;28;20018;-75
2021/10/08 00:24:37;;;;;;;9.40;7.90;;;10.10;99.90;;;;;;5011758;28;20332;-75
2021/10/08 00:27:03;;;;;;;9.60;6.97;;;10.20;99.90;;;;;;5012235;28;20517;-76
2021/10/08 00:29:28;;;;;;;6.35;5.75;;;10.20;99.90;;;;;;5011690;28;20030;-77
2021/10/08 00:31:54;;;;;;;7.32;5.93;;;10.30;99.90;;;;;;4994324;28;20025;-76
2021/10/08 00:34:20;;;;;;;5.93;5.13;;;10.20;99.90;;;;;;5011909;28;20417;-76
2021/10/08 00:36:46;;;;;;;6.90;5.75;;;10.30;99.90;;;;;;5011646;28;20085;-76
2021/10/08 00:39:12;;;;;;;6.78;5.00;;;10.30;99.90;;;;;;5013469;28;20513;-76
2021/10/08 00:41:38;;;;;;;7.28;5.38;;;10.30;99.90;;;;;;5023571;28;20478;-77
2021/10/08 00:44:04;;;;;;;6.35;5.50;;;10.30;99.90;;;;;;5030288;28;20110;-76
2021/10/08 00:46:30;;;;;;;6.72;5.15;;;10.30;99.90;;;;;;5016885;28;20033;-77
2021/10/08 00:48:56;;;;;;;8.20;5.60;;;10.40;99.90;;;;;;5023133;28;20076;-74
2021/10/08 00:51:24;;;;;;;6.18;5.53;;;10.50;99.90;;;;;;5014645;28;20508;-76
2021/10/08 00:53:50;;;;;;;6.05;5.45;;;10.40;99.90;;;;;;5014210;28;20045;-77
2021/10/08 00:56:17;;;;;;;7.28;6.57;;;10.50;99.90;;;;;;5012952;28;20030;-75
2021/10/08 00:58:44;;;;;;;6.00;5.30;;;10.50;99.90;;;;;;5012726;28;20105;-75
2021/10/08 01:01:13;;;;;;;7.32;5.78;;;10.60;99.90;;;;;;4995158;28;20291;-76
2021/10/08 01:03:39;;;;;;;6.75;5.20;;;10.50;99.90;;;;;;5012146;28;20014;-76
2021/10/08 01:06:05;;;;;;;5.43;4.93;;;10.60;99.90;;;;;;5011832;28;20077;-76
2021/10/08 01:08:31;;;;;;;5.82;4.93;;;10.60;99.90;;;;;;5012094;28;20072;-76
2021/10/08 01:10:57;;;;;;;9.20;7.53;;;10.60;99.90;;;;;;5011349;28;20042;-76
2021/10/08 01:13:22;;;;;;;8.63;6.78;;;10.50;99.90;;;;;;4994132;28;20042;-76
2021/10/08 01:15:48;;;;;;;7.10;6.35;;;10.50;99.90;;;;;;5011598;28;20041;-76
2021/10/08 01:18:14;;;;;;;8.15;6.97;;;10.60;99.90;;;;;;5020680;28;20062;-76
2021/10/08 01:20:40;;;;;;;6.70;5.95;;;10.60;99.90;;;;;;5011167;28;20372;-76
2021/10/08 01:23:06;;;;;;;7.43;6.28;;;10.60;99.90;;;;;;5011888;28;20041;-77
2021/10/08 01:25:34;;;;;;;7.25;5.68;;;10.60;99.90;;;;;;5011571;28;20022;-75
2021/10/08 01:28:01;;;;;;;7.47;6.40;;;10.60;99.90;;;;;;5010832;28;20036;-75
2021/10/08 01:30:27;;;;;;;8.52;7.47;;;10.60;99.90;;;;;;5014440;28;20462;-76
2021/10/08 01:32:53;;;;;;;8.30;7.13;;;10.50;99.90;;;;;;5014596;28;20034;-76
2021/10/08 01:35:20;;;;;;;7.63;6.25;;;10.50;99.90;;;;;;5014881;28;20094;-76
2021/10/08 01:37:46;;;;;;;9.63;8.15;;;10.50;99.90;;;;;;5015054;28;20022;-76
2021/10/08 01:40:13;;;;;;;13.32;9.60;;;10.50;99.90;;;;;;5014586;28;20025;-76
2021/10/08 01:42:39;;;;;;;12.98;10.00;;;10.40;99.90;;;;;;5014430;28;20314;-76
2021/10/08 01:45:06;;;;;;;14.80;10.65;;;10.40;99.90;;;;;;5014557;28;20032;-76
2021/10/08 01:47:32;;;;;;;13.73;10.60;;;10.30;99.90;;;;;;5023176;28;20439;-76
2021/10/08 01:49:57;;;;;;;13.77;10.48;;;10.30;99.90;;;;;;5028171;28;20053;-76
2021/10/08 01:52:23;;;;;;;13.55;10.30;;;10.30;99.90;;;;;;5014411;28;20108;-76
2021/10/08 01:54:49;;;;;;;13.20;10.25;;;10.30;99.90;;;;;;5014230;28;20062;-76
2021/10/08 01:57:16;;;;;;;15.73;12.35;;;10.30;99.90;;;;;;5014534;28;20034;-76
2021/10/08 01:59:42;;;;;;;14.73;10.70;;;10.30;99.90;;;;;;4997906;28;20076;-75
2021/10/08 02:02:08;;;;;;;15.13;11.50;;;10.30;99.90;;;;;;5014030;28;20025;-76
2021/10/08 02:04:33;;;;;;;14.15;10.35;;;10.30;99.90;;;;;;5013803;28;20030;-76
2021/10/08 02:06:59;;;;;;;13.13;9.88;;;10.30;99.90;;;;;;5014715;28;20018;-76
2021/10/08 02:09:25;;;;;;;11.52;8.98;;;10.40;99.90;;;;;;5014365;28;20057;-77
2021/10/08 02:11:51;;;;;;;10.95;8.80;;;10.40;99.90;;;;;;5014136;28;20057;-76
2021/10/08 02:14:17;;;;;;;13.02;9.88;;;10.40;99.90;;;;;;5014151;28;20053;-76
2021/10/08 02:16:43;;;;;;;14.10;9.48;;;10.40;99.90;;;;;;5021955;28;20032;-76
2021/10/08 02:19:08;;;;;;;10.38;8.38;;;10.40;99.90;;;;;;5025727;28;20087;-77
2021/10/08 02:21:34;;;;;;;10.70;9.32;;;10.40;99.90;;;;;;5016198;28;20025;-74
2021/10/08 02:24:03;;;;;;;10.10;8.05;;;10.40;99.90;;;;;;5014168;28;20040;-76
2021/10/08 02:26:28;;;;;;;10.02;7.68;;;10.40;99.90;;;;;;5013810;28;20125;-76
2021/10/08 02:28:54;;;;;;;9.00;7.72;;;10.40;99.90;;;;;;4993028;28;20136;-76
2021/10/08 02:31:20;;;;;;;8.10;6.70;;;10.40;99.90;;;;;;5009880;28;20032;-76
2021/10/08 02:33:47;;;;;;;7.07;5.88;;;10.40;99.90;;;;;;5012787;28;20061;-75
2021/10/08 02:36:13;;;;;;;6.43;5.78;;;10.40;99.90;;;;;;4996314;28;20062;-76
2021/10/08 02:38:40;;;;;;;6.07;5.43;;;10.50;99.90;;;;;;5014102;28;20018;-76
2021/10/08 02:41:06;;;;;;;5.75;4.78;;;10.50;99.90;;;;;;5013349;28;20068;-76
2021/10/08 02:43:32;;;;;;;5.18;4.68;;;10.50;99.90;;;;;;5013747;28;20080;-76
2021/10/08 02:45:58;;;;;;;4.40;3.45;;;10.60;99.90;;;;;;5013476;28;20025;-75
2021/10/08 02:48:24;;;;;;;7.95;5.18;;;10.60;99.90;;;;;;5021780;28;20493;-76
2021/10/08 02:50:50;;;;;;;10.65;7.65;;;10.60;99.90;;;;;;5000297;28;20411;-75
2021/10/08 02:53:16;;;;;;;11.77;9.18;;;10.60;99.90;;;;;;4994132;28;20123;-75
2021/10/08 02:55:42;;;;;;;9.80;7.85;;;10.50;99.90;;;;;;5006071;28;20057;-75
2021/10/08 02:58:07;;;;;;;9.23;7.43;;;10.50;99.90;;;;;;5013128;28;20068;-76
2021/10/08 03:00:33;;;;;;;10.63;7.63;;;10.50;99.90;;;;;;5012887;28;20034;-76
2021/10/08 03:02:59;;;;;;;9.68;7.15;;;10.50;99.90;;;;;;5012698;28;20021;-77
2021/10/08 03:05:25;;;;;;;9.27;7.80;;;10.50;99.90;;;;;;5012888;28;20095;-76
2021/10/08 03:07:51;;;;;;;8.57;7.28;;;10.50;99.90;;;;;;4995111;28;20026;-76
2021/10/08 03:10:19;;;;;;;8.85;7.60;;;10.50;99.90;;;;;;5014542;28;20053;-76
2021/10/08 03:12:49;;;;;;;11.27;8.27;;;10.50;99.90;;;;;;5015185;28;20030;-76
2021/10/08 03:15:15;;;;;;;10.75;9.00;;;10.50;99.90;;;;;;5019612;28;20029;-76
2021/10/08 03:17:41;;;;;;;9.05;7.95;;;10.50;99.90;;;;;;5022981;28;20041;-75
2021/10/08 03:20:08;;;;;;;11.15;8.40;;;10.50;99.90;;;;;;5028211;28;20296;-76
2021/10/08 03:22:35;;;;;;;9.32;7.65;;;10.50;99.90;;;;;;5012610;28;20026;-75
2021/10/08 03:25:01;;;;;;;10.65;8.45;;;10.50;99.90;;;;;;5013708;28;20033;-75
2021/10/08 03:27:27;;;;;;;8.55;6.57;;;10.50;99.90;;;;;;4995276;28;20026;-76
2021/10/08 03:29:53;;;;;;;7.95;6.88;;;10.50;99.90;;;;;;5013616;28;20041;-76
2021/10/08 03:32:18;;;;;;;9.35;7.32;;;10.60;99.90;;;;;;5013287;28;20093;-76
2021/10/08 03:34:44;;;;;;;9.35;8.02;;;10.50;99.90;;;;;;5010587;28;20057;-76
2021/10/08 03:37:13;;;;;;;12.25;9.35;;;10.50;99.90;;;;;;5012860;28;20498;-76
2021/10/08 03:39:42;;;;;;;12.48;8.57;;;10.50;99.90;;;;;;5012830;28;20026;-76
2021/10/08 03:42:12;;;;;;;13.32;10.73;;;10.50;99.90;;;;;;5012711;28;20029;-76
2021/10/08 03:44:39;;;;;;;13.13;9.52;;;10.50;99.90;;;;;;5012406;28;20494;-76
2021/10/08 03:47:14;;;;;;;14.98;11.00;;;10.40;99.90;;;;;;5009224;28;20030;-76
2021/10/08 03:49:41;;;;;;;12.70;8.80;;;10.40;99.90;;;;;;5025842;28;20017;-76
2021/10/08 03:52:07;;;;;;;9.77;8.15;;;10.50;99.90;;;;;;5011934;28;20022;-76
2021/10/08 03:54:32;;;;;;;17.75;11.90;;;10.50;99.90;;;;;;5012064;28;20593;-77
2021/10/08 03:56:58;;;;;;;14.68;12.13;;;10.50;99.90;;;;;;5012292;28;20110;-76
2021/10/08 03:59:24;;;;;;;15.65;11.57;;;10.40;99.90;;;;;;5012134;28;20029;-76
2021/10/08 04:01:50;;;;;;;19.20;13.45;;;10.50;99.90;;;;;;5012428;28;20026;-76
2021/10/08 04:04:15;;;;;;;19.52;13.20;;;10.40;99.90;;;;;;5012264;28;20128;-76
2021/10/08 04:06:41;;;;;;;17.17;13.73;;;10.50;99.90;;;;;;5011963;28;20025;-74
2021/10/08 04:09:08;;;;;;;16.17;12.45;;;10.40;99.90;;;;;;5013335;28;20025;-76
2021/10/08 04:11:34;;;;;;;16.80;11.88;;;10.40;99.90;;;;;;5012797;28;20034;-75
2021/10/08 04:14:00;;;;;;;13.45;11.32;;;10.40;99.90;;;;;;5012791;28;20033;-76
2021/10/08 04:16:26;;;;;;;22.35;14.48;;;10.40;99.90;;;;;;5000957;28;20123;-76
2021/10/08 04:18:51;;;;;;;21.83;13.60;;;10.50;99.90;;;;;;5031534;28;20095;-76
2021/10/08 04:21:17;;;;;;;18.30;12.85;;;10.40;99.90;;;;;;5024566;28;20025;-75
2021/10/08 04:23:43;;;;;;;19.25;13.23;;;10.40;99.90;;;;;;5012802;28;20109;-76
2021/10/08 04:26:09;;;;;;;19.55;13.32;;;10.40;99.90;;;;;;5012767;28;20386;-75
2021/10/08 04:28:35;;;;;;;16.42;11.98;;;10.40;99.90;;;;;;5014024;28;20090;-77
2021/10/08 04:31:01;;;;;;;18.52;13.35;;;10.40;99.90;;;;;;5017957;28;20109;-76
2021/10/08 04:33:28;;;;;;;18.30;13.50;;;10.40;99.90;;;;;;5013430;28;20061;-76
2021/10/08 04:35:56;;;;;;;22.65;15.80;;;10.40;99.90;;;;;;5012230;28;20033;-76
2021/10/08 04:38:23;;;;;;;25.10;16.55;;;10.40;99.90;;;;;;5013073;28;20522;-76
2021/10/08 04:40:49;;;;;;;24.40;16.42;;;10.40;99.90;;;;;;4993336;28;20073;-76
2021/10/08 04:43:15;;;;;;;19.10;13.63;;;10.40;99.90;;;;;;5013040;28;20026;-75
2021/10/08 04:45:41;;;;;;;19.70;13.63;;;10.40;99.90;;;;;;5011876;28;20501;-76
2021/10/08 04:48:07;;;;;;;20.10;13.98;;;10.40;99.90;;;;;;5012054;28;20022;-76
2021/10/08 04:50:33;;;;;;;20.75;15.27;;;10.40;99.90;;;;;;4995331;28;20125;-76
2021/10/08 04:52:59;;;;;;;18.83;14.02;;;10.40;99.90;;;;;;5012181;28;20112;-75
2021/10/08 04:55:25;;;;;;;23.20;16.13;;;10.40;99.90;;;;;;5012326;28;20347;-76
2021/10/08 04:57:50;;;;;;;19.15;15.02;;;10.30;99.90;;;;;;5012301;28;20034;-76
2021/10/08 05:00:16;;;;;;;22.52;16.35;;;10.40;99.90;;;;;;5012690;28;20032;-76
2021/10/08 05:02:42;;;;;;;20.40;14.70;;;10.40;99.90;;;;;;4995574;28;20064;-76
2021/10/08 05:05:09;;;;;;;15.73;12.55;;;10.40;99.90;;;;;;5016594;28;20032;-76
2021/10/08 05:07:34;;;;;;;18.10;13.68;;;10.40;99.90;;;;;;5030182;28;20053;-76
2021/10/08 05:10:00;;;;;;;16.98;13.27;;;10.40;99.90;;;;;;5019677;28;20034;-76
2021/10/08 05:12:26;;;;;;;18.40;13.38;;;10.40;99.90;;;;;;5016413;28;20398;-76
2021/10/08 05:14:52;;;;;;;17.35;13.00;;;10.50;99.90;;;;;;5016884;28;20403;-76
2021/10/08 05:17:19;;;;;;;17.52;12.55;;;10.50;99.90;;;;;;4998369;28;20030;-76
2021/10/08 05:19:44;;;;;;;18.92;13.80;;;10.50;99.90;;;;;;5016276;28;20085;-76
2021/10/08 05:22:11;;;;;;;14.80;11.50;;;10.50;99.90;;;;;;5016437;28;20037;-75
2021/10/08 05:24:37;;;;;;;13.90;11.15;;;10.50;99.90;;;;;;5016649;28;20030;-75
2021/10/08 05:27:03;;;;;;;14.88;10.63;;;10.50;99.90;;;;;;5015727;28;20114;-76
2021/10/08 05:29:29;;;;;;;13.07;9.90;;;10.50;99.90;;;;;;5015926;28;20050;-76
2021/10/08 05:31:55;;;;;;;14.70;10.98;;;10.60;99.90;;;;;;5015938;28;20037;-75
2021/10/08 05:34:20;;;;;;;12.40;9.13;;;10.60;99.90;;;;;;4998188;28;20033;-75
2021/10/08 05:36:50;;;;;;;12.27;9.73;;;10.70;99.90;;;;;;5016113;28;20034;-76
2021/10/08 05:39:19;;;;;;;15.75;11.15;;;10.70;99.90;;;;;;5015054;28;20549;-76
2021/10/08 05:41:45;;;;;;;13.13;10.23;;;10.70;99.90;;;;;;5015524;28;20076;-76
2021/10/08 05:44:11;;;;;;;12.63;9.05;;;10.70;99.90;;;;;;5015744;28;20022;-76
2021/10/08 05:46:37;;;;;;;11.23;9.70;;;10.70;99.90;;;;;;5015881;28;20161;-76
2021/10/08 05:49:04;;;;;;;14.25;9.35;;;10.70;99.90;;;;;;5015143;28;20038;-76
2021/10/08 05:51:31;;;;;;;13.07;9.75;;;10.80;99.90;;;;;;5014974;28;20022;-76
2021/10/08 05:53:56;;;;;;;12.65;10.48;;;10.80;99.90;;;;;;5015279;28;20038;-76
2021/10/08 05:58:48;;;;;;;17.90;11.65;;;10.80;99.90;;;;;;5008180;23;20058;-79
2021/10/08 06:01:14;;;;;;;14.45;11.63;;;10.80;99.90;;;;;;5007515;28;20026;-78
2021/10/08 06:03:40;;;;;;;20.52;14.00;;;10.80;99.90;;;;;;5001491;28;20049;-79
2021/10/08 06:06:06;;;;;;;23.85;15.27;;;10.80;99.90;;;;;;5005624;28;20557;-79
2021/10/08 06:08:32;;;;;;;18.83;12.70;;;10.80;99.90;;;;;;5018163;28;20487;-78
2021/10/08 06:10:57;;;;;;;17.83;12.70;;;10.80;99.90;;;;;;5018584;28;20026;-79
2021/10/08 06:13:24;;;;;;;28.10;17.08;;;10.90;99.90;;;;;;4979255;28;20035;-79
2021/10/08 06:15:50;;;;;;;26.95;17.20;;;10.90;99.90;;;;;;4979799;28;20034;-79
2021/10/08 06:18:15;;;;;;;25.17;18.38;;;10.90;99.90;;;;;;5003971;28;20195;-79
2021/10/08 06:20:41;;;;;;;20.75;15.23;;;10.90;99.90;;;;;;5019934;28;20026;-79
2021/10/08 06:23:07;;;;;;;17.05;12.95;;;10.90;99.90;;;;;;5007404;28;20026;-79
2021/10/08 06:25:33;;;;;;;13.32;10.20;;;11.00;99.90;;;;;;5000239;28;20034;-78
2021/10/08 06:27:59;;;;;;;28.23;19.58;;;11.10;99.90;;;;;;5001444;28;20092;-78
2021/10/08 06:30:24;;;;;;;24.38;16.77;;;11.20;99.90;;;;;;5011957;28;20025;-78
2021/10/08 06:32:50;;;;;;;25.48;16.58;;;11.10;99.90;;;;;;5000018;28;20037;-78
2021/10/08 06:35:16;;;;;;;24.48;16.15;;;11.10;99.90;;;;;;5019622;28;20084;-78
2021/10/08 06:37:42;;;;;;;22.85;16.00;;;11.20;99.90;;;;;;5000545;28;20045;-79
2021/10/08 06:40:09;;;;;;;22.83;15.02;;;11.20;99.90;;;;;;5016842;28;20083;-79
2021/10/08 06:42:35;;;;;;;25.55;16.05;;;11.30;99.90;;;;;;5000962;28;20030;-78
2021/10/08 06:45:02;;;;;;;28.60;18.85;;;11.40;99.90;;;;;;5019254;28;20033;-78
2021/10/08 06:47:28;;;;;;;23.25;17.33;;;11.40;99.90;;;;;;5017437;28;20029;-77
2021/10/08 06:49:53;;;;;;;25.60;15.95;;;11.40;99.90;;;;;;5014307;28;20030;-78
2021/10/08 06:52:19;;;;;;;20.45;14.65;;;11.40;99.90;;;;;;4998472;28;20034;-78
2021/10/08 06:54:45;;;;;;;26.50;18.27;;;11.50;99.90;;;;;;4999130;28;20034;-78
2021/10/08 06:57:11;;;;;;;25.95;16.70;;;11.50;99.90;;;;;;5016900;28;20037;-78
2021/10/08 06:59:36;;;;;;;27.15;19.80;;;11.50;99.90;;;;;;5017071;28;20026;-79
2021/10/08 07:02:03;;;;;;;27.30;19.35;;;11.50;99.90;;;;;;5010902;28;20274;-79
2021/10/08 07:04:28;;;;;;;23.27;16.95;;;11.50;99.90;;;;;;5016610;28;20022;-78
2021/10/08 07:06:54;;;;;;;20.90;14.23;;;11.50;99.90;;;;;;4998500;28;20085;-77
2021/10/08 07:09:20;;;;;;;30.08;20.42;;;11.50;99.90;;;;;;4997750;28;20030;-77
2021/10/08 07:11:46;;;;;;;23.17;17.38;;;11.50;99.90;;;;;;5002821;28;20040;-78
2021/10/08 07:14:12;;;;;;;24.02;15.95;;;11.50;99.90;;;;;;4998159;28;20085;-78
2021/10/08 07:16:38;;;;;;;33.20;19.73;;;11.60;99.90;;;;;;4996717;28;20085;-77
2021/10/08 07:19:08;;;;;;;25.60;17.10;;;11.60;99.90;;;;;;4997159;28;20077;-77
2021/10/08 07:21:35;;;;;;;29.92;20.00;;;11.60;99.90;;;;;;4997828;28;20019;-78
2021/10/08 07:24:01;;;;;;;29.00;19.27;;;11.60;99.90;;;;;;4996507;28;20026;-79
2021/10/08 07:26:30;;;;;;;27.23;18.58;;;11.60;99.90;;;;;;4995529;28;20042;-78
2021/10/08 07:28:56;;;;;;;25.38;19.05;;;11.50;99.90;;;;;;4980677;28;20101;-78
2021/10/08 07:31:21;;;;;;;25.40;17.20;;;11.50;99.90;;;;;;4998265;28;20026;-79
2021/10/08 07:33:47;;;;;;;25.25;17.58;;;11.50;99.90;;;;;;4980357;28;20023;-78
2021/10/08 07:36:13;;;;;;;21.08;15.52;;;11.50;99.90;;;;;;5011494;28;20026;-78
2021/10/08 07:38:39;;;;;;;20.02;13.95;;;11.50;99.90;;;;;;5000524;28;20026;-77
2021/10/08 07:41:05;;;;;;;29.67;18.27;;;11.60;99.90;;;;;;5003164;28;20018;-79
2021/10/08 07:43:31;;;;;;;27.67;19.02;;;11.60;99.90;;;;;;4998627;28;20476;-78
2021/10/08 07:45:57;;;;;;;24.23;17.40;;;11.60;99.90;;;;;;4997998;28;20034;-79
2021/10/08 07:48:23;;;;;;;29.48;19.92;;;11.60;99.90;;;;;;4997775;28;20366;-79
2021/10/08 07:50:48;;;;;;;29.50;19.42;;;11.50;99.90;;;;;;4998177;28;20022;-78
2021/10/08 07:53:14;;;;;;;30.55;21.55;;;11.50;99.90;;;;;;4997513;28;20093;-78
2021/10/08 07:55:40;;;;;;;25.85;18.85;;;11.40;99.90;;;;;;4997301;28;20034;-78
2021/10/08 07:58:06;;;;;;;24.58;17.50;;;11.40;99.90;;;;;;5006494;28;20137;-77
2021/10/08 08:00:32;;;;;;;33.13;20.20;;;11.40;99.90;;;;;;4997766;28;20034;-78
2021/10/08 08:02:57;;;;;;;32.25;20.42;;;11.40;99.90;;;;;;5013988;28;20080;-77
2021/10/08 08:05:23;;;;;;;34.72;20.92;;;11.40;99.90;;;;;;5015287;28;20028;-78
2021/10/08 08:07:50;;;;;;;33.05;21.40;;;11.40;99.90;;;;;;5017726;28;20029;-78
2021/10/08 08:10:16;;;;;;;33.80;20.63;;;11.40;99.90;;;;;;5011529;28;20026;-78
2021/10/08 08:12:42;;;;;;;28.58;18.25;;;11.40;99.90;;;;;;4980833;28;20556;-78
2021/10/08 08:15:08;;;;;;;26.05;17.60;;;11.40;99.90;;;;;;4997781;28;20036;-78
2021/10/08 08:17:34;;;;;;;29.92;18.80;;;11.40;99.90;;;;;;5009121;28;20494;-78
2021/10/08 08:19:59;;;;;;;28.77;18.55;;;11.50;99.90;;;;;;5015922;28;20061;-78
2021/10/08 08:22:25;;;;;;;29.77;19.42;;;11.50;99.90;;;;;;4997281;28;20061;-79
2021/10/08 08:24:51;;;;;;;28.05;19.02;;;11.60;99.90;;;;;;5014224;28;20025;-79
2021/10/08 08:27:17;;;;;;;27.92;18.05;;;11.60;99.90;;;;;;5017330;28;20030;-80
2021/10/08 08:29:42;;;;;;;30.30;20.00;;;11.70;99.90;;;;;;5007458;28;20057;-79
2021/10/08 08:32:09;;;;;;;29.75;19.80;;;11.70;99.90;;;;;;4996411;28;20030;-77
2021/10/08 08:34:35;;;;;;;26.60;18.10;;;11.80;99.90;;;;;;5009626;28;20027;-78
2021/10/08 08:37:01;;;;;;;33.30;19.38;;;11.80;99.90;;;;;;5025105;28;20022;-79
2021/10/08 08:39:27;;;;;;;34.42;20.92;;;11.80;99.90;;;;;;5014348;28;20390;-78
2021/10/08 08:41:53;;;;;;;31.48;20.73;;;11.80;99.90;;;;;;4994858;28;20096;-78
2021/10/08 08:44:19;;;;;;;30.58;19.52;;;11.80;99.90;;;;;;4996008;28;20027;-78
2021/10/08 08:46:45;;;;;;;29.48;19.02;;;11.80;99.90;;;;;;5015959;28;20029;-78
2021/10/08 08:49:11;;;;;;;27.63;18.63;;;11.80;99.90;;;;;;4998955;28;20037;-79
2021/10/08 08:51:37;;;;;;;28.55;19.20;;;11.80;99.90;;;;;;4996230;28;20520;-79
2021/10/08 08:54:08;;;;;;;31.73;18.95;;;11.90;99.90;;;;;;4999109;28;20030;-79
2021/10/08 08:56:36;;;;;;;26.60;17.30;;;12.00;99.90;;;;;;5017031;28;20037;-79
2021/10/08 08:59:07;;;;;;;24.45;16.02;;;12.00;99.90;;;;;;5017384;28;20014;-78
2021/10/08 09:01:33;;;;;;;24.47;16.40;;;12.20;99.90;;;;;;5006351;28;20030;-79
2021/10/08 09:04:11;;;;;;;26.20;16.63;;;12.30;99.90;;;;;;4980769;28;20027;-79
2021/10/08 09:06:39;;;;;;;22.35;15.45;;;12.50;99.90;;;;;;4998226;28;20034;-78
2021/10/08 09:09:18;;;;;;;23.48;15.07;;;12.40;99.90;;;;;;4998794;28;20554;-78
2021/10/08 09:11:45;;;;;;;31.65;19.58;;;12.40;99.90;;;;;;5013614;28;20031;-78
2021/10/08 09:14:29;;;;;;;27.90;17.48;;;12.30;99.90;;;;;;4990352;28;20471;-78
2021/10/08 09:17:15;;;;;;;27.70;17.17;;;12.20;99.90;;;;;;4996972;28;20033;-77
2021/10/08 09:20:11;;;;;;;30.52;17.30;;;12.10;99.90;;;;;;4995688;28;20067;-77
2021/10/08 09:22:38;;;;;;;28.58;16.98;;;12.00;99.90;;;;;;4969026;28;20495;-78
2021/10/08 09:25:12;;;;;;;26.08;17.05;;;11.90;99.90;;;;;;4988653;28;20038;-78
2021/10/08 09:27:40;;;;;;;25.17;16.70;;;11.80;99.90;;;;;;5014418;28;20088;-78
2021/10/08 09:30:07;;;;;;;25.80;16.55;;;11.80;99.90;;;;;;5014707;28;20040;-78
2021/10/08 09:32:48;;;;;;;22.58;14.98;;;11.80;99.90;;;;;;5012092;28;20034;-77
2021/10/08 09:35:17;;;;;;;19.67;13.80;;;12.00;99.90;;;;;;5014653;28;20106;-77
2021/10/08 09:37:44;;;;;;;21.60;13.50;;;12.10;99.90;;;;;;4996849;28;20018;-78
2021/10/08 09:40:32;;;;;;;17.60;11.98;;;12.30;99.90;;;;;;5008340;28;20516;-78
2021/10/08 09:43:22;;;;;;;17.08;11.57;;;12.60;99.90;;;;;;4997131;28;20023;-79
2021/10/08 09:45:52;;;;;;;13.73;9.52;;;12.90;99.90;;;;;;5004839;28;20110;-78
2021/10/08 09:48:24;;;;;;;13.70;10.00;;;13.10;99.90;;;;;;4999295;28;20026;-79
2021/10/08 09:51:03;;;;;;;11.63;8.70;;;13.30;99.90;;;;;;4989700;28;20030;-77
2021/10/08 09:53:30;;;;;;;12.80;9.55;;;13.40;99.90;;;;;;5001489;28;20040;-79
2021/10/08 09:55:56;;;;;;;11.52;9.45;;;13.30;99.90;;;;;;5012014;28;20084;-79
2021/10/08 09:58:22;;;;;;;11.48;9.27;;;13.20;99.90;;;;;;5001021;28;20494;-78
2021/10/08 10:00:56;;;;;;;9.85;8.13;;;13.20;99.90;;;;;;5018404;28;20037;-77
2021/10/08 10:03:22;;;;;;;9.80;7.85;;;13.20;99.90;;;;;;4995691;28;20460;-78
2021/10/08 10:05:48;;;;;;;9.90;8.48;;;13.20;99.90;;;;;;5001888;28;20113;-77
2021/10/08 10:08:14;;;;;;;11.13;7.50;;;13.20;99.90;;;;;;4981134;28;20022;-78
2021/10/08 10:10:41;;;;;;;12.23;8.45;;;13.10;99.90;;;;;;5012580;28;20026;-79
2021/10/08 10:13:13;;;;;;;11.18;8.30;;;13.00;99.90;;;;;;5004302;28;20033;-78
2021/10/08 10:15:48;;;;;;;12.10;8.27;;;13.10;99.90;;;;;;4993720;28;20038;-77
2021/10/08 10:18:16;;;;;;;11.55;8.43;;;13.10;99.90;;;;;;4998099;28;20027;-76
2021/10/08 10:20:50;;;;;;;9.07;7.88;;;13.10;99.90;;;;;;4999819;28;20025;-77
2021/10/08 10:23:19;;;;;;;9.02;7.93;;;13.20;99.90;;;;;;5007651;28;20025;-78
2021/10/08 10:25:47;;;;;;;10.15;8.30;;;13.20;99.90;;;;;;5015551;28;20037;-77
2021/10/08 10:28:14;;;;;;;8.65;7.40;;;13.20;99.90;;;;;;5018698;28;20029;-77
2021/10/08 10:30:41;;;;;;;6.80;6.10;;;13.20;99.90;;;;;;4992270;28;20073;-78
2021/10/08 10:33:09;;;;;;;8.20;7.40;;;13.10;99.90;;;;;;5018526;28;20017;-77
2021/10/08 10:35:45;;;;;;;7.78;6.40;;;13.20;99.90;;;;;;4999933;28;20030;-78
2021/10/08 10:38:33;;;;;;;8.68;6.30;;;13.20;99.90;;;;;;5001015;28;20056;-78
2021/10/08 10:41:07;;;;;;;6.03;5.18;;;13.30;99.90;;;;;;5003664;28;20026;-77
2021/10/08 10:43:35;;;;;;;7.00;6.30;;;13.30;99.90;;;;;;4999863;28;20030;-78
2021/10/08 10:46:25;;;;;;;7.55;5.70;;;13.50;99.90;;;;;;5012548;28;20056;-77
2021/10/08 10:51:56;;;;;;;5.88;5.03;;;14.30;99.90;;;;;;4998132;28;20034;-78
2021/10/08 10:54:34;;;;;;;7.43;6.03;;;14.50;99.90;;;;;;4982849;28;20034;-78
2021/10/08 10:57:00;;;;;;;10.77;6.90;;;14.80;99.90;;;;;;5000478;28;20029;-78
2021/10/08 10:59:27;;;;;;;9.70;7.75;;;14.90;98.80;;;;;;5000071;28;20026;-78
2021/10/08 11:04:38;;;;;;;9.48;8.10;;;15.00;99.10;;;;;;4998305;28;20031;-78
2021/10/08 11:07:05;;;;;;;6.68;6.00;;;15.20;97.50;;;;;;4998486;28;20394;-77
2021/10/08 11:09:32;;;;;;;9.85;8.15;;;15.00;97.20;;;;;;5015005;28;20494;-78
2021/10/08 11:12:41;;;;;;;11.65;7.68;;;14.80;96.80;;;;;;5006961;28;20042;-78
2021/10/08 11:15:19;;;;;;;8.63;6.72;;;14.80;98.00;;;;;;5013375;28;20030;-78
2021/10/08 11:17:58;;;;;;;7.63;6.13;;;14.80;97.60;;;;;;5011931;28;20030;-77
2021/10/08 11:20:45;;;;;;;7.50;5.82;;;14.80;97.90;;;;;;4981417;28;20476;-78
2021/10/08 11:23:19;;;;;;;6.97;6.28;;;14.80;98.00;;;;;;4999735;28;20034;-78
2021/10/08 11:25:48;;;;;;;7.25;6.00;;;15.00;97.10;;;;;;5001284;28;20030;-77
2021/10/08 11:28:15;;;;;;;7.30;6.40;;;15.00;97.10;;;;;;5000713;28;20018;-77
2021/10/08 11:30:41;;;;;;;12.32;8.57;;;15.10;95.90;;;;;;5019249;28;20042;-77
2021/10/08 11:33:07;;;;;;;7.25;6.45;;;15.00;95.90;;;;;;5002319;28;20095;-78
2021/10/08 11:35:35;;;;;;;12.43;9.30;;;14.90;96.30;;;;;;5000620;28;20034;-78
2021/10/08 11:38:02;;;;;;;12.65;8.82;;;14.80;94.90;;;;;;5018220;28;20079;-78
2021/10/08 11:40:29;;;;;;;10.30;8.65;;;14.60;95.50;;;;;;5016435;28;20037;-78
2021/10/08 11:43:00;;;;;;;12.18;9.57;;;14.60;96.00;;;;;;5000594;28;20018;-77
2021/10/08 11:50:51;;;;;;;13.15;9.05;;;14.70;95.60;;;;;;5003839;28;20069;-79
2021/10/08 11:53:17;;;;;;;9.88;8.18;;;14.70;95.80;;;;;;5017858;28;20092;-78
2021/10/08 11:55:43;;;;;;;11.25;8.85;;;14.90;95.70;;;;;;5017717;28;20105;-77
2021/10/08 11:58:11;;;;;;;11.00;9.15;;;15.20;95.40;;;;;;5041543;23;20076;-79
2021/10/08 12:00:44;;;;;;;11.35;9.07;;;15.20;94.30;;;;;;5003648;28;20099;-79
2021/10/08 12:03:15;;;;;;;9.25;7.72;;;15.10;94.30;;;;;;4987973;28;20065;-80
2021/10/08 12:05:52;;;;;;;11.70;8.85;;;14.90;94.20;;;;;;5008201;28;20019;-79
2021/10/08 12:08:20;;;;;;;10.13;8.25;;;14.70;94.80;;;;;;5018836;28;20018;-79
2021/10/08 12:11:07;;;;;;;9.77;7.28;;;14.60;95.20;;;;;;5027414;28;20022;-79
2021/10/08 12:13:43;;;;;;;11.57;9.18;;;14.70;96.00;;;;;;5008236;28;20030;-80
2021/10/08 12:16:11;;;;;;;12.50;9.80;;;14.80;94.90;;;;;;5022664;28;20140;-79
2021/10/08 12:18:49;;;;;;;11.50;9.07;;;14.70;94.20;;;;;;5021763;28;20034;-79
2021/10/08 12:21:18;;;;;;;11.52;9.07;;;14.70;94.20;;;;;;5004265;28;20049;-79
2021/10/08 12:23:56;;;;;;;11.73;8.80;;;14.50;94.30;;;;;;5030887;28;20022;-78
2021/10/08 12:26:22;;;;;;;13.02;8.65;;;14.30;95.40;;;;;;5031204;28;20054;-78
2021/10/08 12:28:51;;;;;;;10.63;8.65;;;14.30;95.70;;;;;;5021770;28;20475;-79
2021/10/08 12:31:17;;;;;;;10.57;8.15;;;14.30;95.80;;;;;;5020065;28;20109;-79
2021/10/08 12:33:44;;;;;;;12.45;9.75;;;14.50;96.00;;;;;;5021152;28;20117;-79
2021/10/08 12:36:26;;;;;;;12.13;10.13;;;14.80;95.60;;;;;;5019586;28;20026;-79
2021/10/08 12:39:09;;;;;;;14.40;11.10;;;15.20;94.10;;;;;;4998092;28;20049;-77
2021/10/08 12:41:42;;;;;;;12.93;10.00;;;15.30;92.90;;;;;;5022037;28;20601;-78
2021/10/08 12:44:21;;;;;;;13.57;10.52;;;15.40;92.90;;;;;;5021113;28;20097;-78
2021/10/08 12:47:13;;;;;;;13.70;11.73;;;15.50;92.50;;;;;;4998202;28;20029;-78
2021/10/08 12:49:48;;;;;;;12.23;9.05;;;15.50;91.50;;;;;;5022770;28;20029;-77
2021/10/08 12:52:16;;;;;;;14.02;10.65;;;15.50;92.10;;;;;;5004874;28;20513;-78